Impacts TAF Board
For situational awareness. Not to be used for flight planning purposes.
IDs:

KAGC - Pittsburgh/Allegheny, PA, US

Issued at 1720 UTC 01 Feb 2023
Updated at 2213 UTC 01 Feb 2023
Potential Impact None Slight Moderate High
Time2153Z 01/23Z 02/00Z 02/01Z 02/02Z 02/03Z 02/04Z 02/05Z 02/06Z 02/07Z 02/08Z 02/09Z 02/10Z 02/11Z>>
Type OBS PRVL PRVL PRVL PRVL PRVL PRVL PRVL PRVL PRVL PRVL PRVL PRVL PRVL
VIS 10 >6 >6 >6 >6 >6 >6 >6 >6 >6 >6 >6 >6 >6
CIG -- -- -- -- 250 250 250 250 250 250 250 250 250 250
Cover CLR SCT SCT SCT BKN BKN BKN BKN BKN BKN BKN BKN BKN BKN
FltCat VFR VFR VFR VFR VFR VFR VFR VFR VFR VFR VFR VFR VFR VFR
WX -- -- -- -- -- -- -- -- -- -- -- -- -- --
WDir 270 270 270 270 200 200 200 200 200 200 200 200 200 200
WSpd 4 5 5 5 5 5 5 5 5 5 5 5 5 5
WGst -- -- -- -- -- -- -- -- -- -- -- -- -- --
WSHgt -- -- -- -- -- -- -- -- -- -- -- -- -- --
WSDir -- -- -- -- -- -- -- -- -- -- -- -- -- --
WSSpd -- -- -- -- -- -- -- -- -- -- -- -- -- --

NOTE: LAMP data beyond the time of the TAF data is denoted as LAMP in Type and colored magenta.

Raw TAF
KAGC 011720Z 0118/0218 27005KT P6SM SCT250
  FM020200 20005KT P6SM BKN250
  FM021400 23010G18KT P6SM SCT250


Raw METAR
KAGC 012153Z 27004KT 10SM CLR M04/M13 A3027 RMK AO2 SLP274 T10391133
KAGC 012053Z 00000KT 10SM CLR M04/M13 A3027 RMK AO2 SLP273 T10391133 56016
KAGC 011953Z 26006KT 10SM CLR M04/M13 A3028 RMK AO2 SLP278 T10391128

METAR Board
Radar Display
Forecast Discussion

For situational awareness. Not to be used for flight planning purposes.